Pt. Reyes RCA field Weather observations

Data are for 10 minute period ending at time listed.
 Day   Time   Solar   Ave.   Ave.  Ave.  Vector    Max.   Stn.   Total 
  of    of     Rad.   Air    Rel.  Wind   Wind     Wind   Baro. Precip.
Year   Day            Temp.  Hum.  Speed  Dir.     Gust   Pres.        
2016   (PST)   W/m2    F      %     mph   deg.      mph    mb.    in.  
-----------------------------------------------------------------------
 237   22:30    0.0    53   98.7     8    290.1    13.0   1011.9  0.00  
 237   22:40    0.0    53   98.7     8    286.4    11.5   1011.9  0.00  
 237   22:50    0.0    53   98.8     7    288.7    10.9   1011.9  0.00  
 237   23:00    0.0    53   98.8     8    296.4    10.2   1011.9  0.00  
 237   23:10    0.0    53   98.8     7    298.9    11.1   1011.9  0.00  
 237   23:20    0.0    53   98.8     7    298.0    11.9   1011.9  0.00  
 237   23:30    0.0    53   98.9     7    302.0    12.1   1011.9  0.00  
 237   23:40   -1.0    53   98.9     7    300.5    10.7   1011.5  0.00  
 237   23:50   -1.0    53   98.9     7    292.7     9.9   1011.5  0.00  
 238    0:00   -1.0    53   98.9     8    302.6    11.6   1011.5  0.00  
 238    0:10   -1.0    53   98.9     8    307.6    12.0   1011.5  0.00  
 238    0:20   -1.0    52   98.9     8    305.6    13.5   1011.5  0.00  
 238    0:30   -1.0    52   98.9     5    315.1     7.7   1011.2  0.00  
 238    0:40   -1.0    52   98.9     8    302.3    11.6   1011.2  0.00  
 238    0:50   -1.0    52   98.9     6    309.5     8.1   1011.2  0.00  
 238    1:00   -1.0    53   98.9     6    308.0     9.3   1011.2  0.00  
 238    1:10    0.0    53   98.9     7    297.7    11.7   1010.8  0.00  
 238    1:20    0.0    53   99.0     8    307.3    12.0   1010.8  0.00  
 238    1:30    0.0    52   99.0     9    306.7    11.9   1010.8  0.00  
 238    1:40    0.0    52   99.0     7    312.9    10.8   1010.8  0.00  
 238    1:50    0.0    52   99.0     8    308.4    11.2   1010.8  0.00  
 238    2:00    0.0    52   99.0     6    299.8    10.1   1010.8  0.00  
 238    2:10    0.0    52   99.0     7    318.2     9.6   1010.8  0.00  
 238    2:20    0.0    52   99.1     6    313.7     9.6   1010.8  0.00  
 238    2:30    0.0    53   99.1     5    307.4     7.7   1010.8  0.00  
 238    2:40    0.0    53   99.1     7    303.8    10.4   1010.8  0.00  
 238    2:50    0.0    52   99.1     5    287.1     7.7   1010.8  0.00  
 238    3:00    0.0    52   99.1     7    304.1     9.2   1010.8  0.00  
 238    3:10    0.0    52   99.1     6    300.6    10.8   1010.8  0.00  
 238    3:20    0.0    52   99.1     5    296.1    10.4   1010.5  0.00  
 238    3:30    0.0    52   99.2     6    299.7     9.2   1010.5  0.00  
 238    3:40    0.0    53   99.2     6    291.8     9.0   1010.5  0.00  
 238    3:50    0.0    53   99.2     4    292.9     7.5   1010.5  0.00  
 238    4:00    0.0    53   99.2     5    293.4     6.9   1010.5  0.00  
 238    4:10    0.0    53   99.2     4    292.5     8.3   1010.5  0.00  
 238    4:20    0.0    53   99.2     4    309.0     7.1   1010.5  0.00  
 238    4:30    0.0    53   99.2     5    274.8     7.9   1010.5  0.00  
 238    4:40    0.0    53   99.2     8    283.6    12.4   1010.5  0.00  
 238    4:50    0.0    53   99.2     7    286.7    10.2   1010.5  0.00  
 238    5:00    0.0    53   99.2     6    270.8     9.5   1010.5  0.00  
 238    5:10    0.0    53   99.2     6    287.0    11.1   1010.5  0.00  
 238    5:20    0.0    53   99.2     6    292.9    11.9   1010.5  0.00  
 238    5:30    0.0    53   99.2     6    301.6    11.0   1010.8  0.00  
 238    5:40    0.0    53   99.2     4    293.3     7.0   1010.8  0.00  
 238    5:50    0.0    53   99.2     5    290.6     9.2   1010.8  0.00  
 238    6:00    4.0    53   99.2     6    292.2     9.1   1010.8  0.00  
 238    6:10    6.0    53   99.2     8    292.0    11.5   1011.2  0.00  
 238    6:20    9.0    53   99.2     4    296.4     8.9   1011.2  0.00  
 238    6:30   11.0    53   99.2     5    287.0     7.7   1011.2  0.00  
 238    6:40   14.0    53   99.2     6    285.2     8.6   1011.2  0.00  
 238    6:50   20.0    53   99.2     4    302.7     6.9   1011.2  0.00  
 238    7:00   24.0    53   99.2     4    291.0     6.8   1011.2  0.00  
 238    7:10   30.0    54   99.2     5    271.2     7.3   1011.2  0.00  
 238    7:20   35.0    54   99.2     5    268.1     6.6   1011.2  0.00  
 238    7:30   41.0    54   99.2     4    260.2     7.5   1011.2  0.00  
 238    7:40   45.0    54   99.2     4    287.3     6.8   1011.2  0.00  
 238    7:50   46.0    54   99.2     4    275.0     6.3   1011.5  0.00  
 238    8:00   61.0    54   99.2     4    248.1     6.8   1011.5  0.00  
 238    8:10   65.0    54   99.1     4    267.0     7.5   1011.2  0.00  
 238    8:20   74.0    54   99.1     6    264.6     8.3   1011.2  0.00  
 238    8:30  108.0    54   99.1     3    281.4     5.3   1011.5  0.00  
 238    8:40  111.0    54   99.1     3    269.0     5.2   1011.5  0.00  
 238    8:50  149.0    54   99.1     3    301.8     4.9   1011.5  0.00  
 238    9:00  162.0    55   99.1     2    259.1     3.6   1011.5  0.00  
 238    9:10  186.0    55   99.0     2    287.6     3.6   1011.5  0.00  
 238    9:20  189.0    55   99.0     2    280.8     3.7   1011.5  0.00  
 238    9:30  219.0    55   98.9     2    259.9     4.3   1011.5  0.00  
 238    9:40  228.0    55   98.9     2    274.6     5.1   1011.5  0.00  
 238    9:50  213.0    56   98.7     3    319.3     5.2   1011.5  0.00  
 238   10:00  247.0    56   98.5     3    298.3     4.7   1011.5  0.00  
 238   10:10  276.0    56   98.0     2    274.4     5.8   1011.5  0.00  
 238   10:20  277.0    57   96.6     3    267.1     6.9   1011.2  0.00  
 238   10:30  317.0    57   93.3     4    223.6     7.8   1011.2  0.00  
 238   10:40  341.0    58   90.2     3    220.2     6.1   1011.2  0.00  
 238   10:50  355.0    59   87.0     4    236.8     7.6   1011.2  0.00  
 238   11:00  371.0    60   85.0     4    248.8     7.4   1010.8  0.00  
 238   11:10  320.0    60   84.8     7    252.9    10.2   1010.8  0.00  
 238   11:20  307.0    60   84.8     7    251.6     9.3   1010.8  0.00  
 238   11:30  266.0    59   85.3     8    253.9    11.1   1010.8  0.00  
 238   11:40  241.0    59   87.4     8    248.4    10.4   1010.8  0.00  
 238   11:50  224.0    59   88.1     8    241.7    12.2   1010.8  0.00  
 238   12:00  215.0    59   88.1     8    232.9    11.8   1010.8  0.00  
 238   12:10  223.0    59   88.7     8    222.9    11.0   1010.8  0.00  
 238   12:20  264.0    60   88.0     6    173.4    10.3   1010.5  0.00  
 238   12:30  259.0    60   86.0     7    189.5    10.9   1010.5  0.00  
 238   12:40  270.0    60   86.0     9    222.6    12.8   1010.5  0.00  
 238   12:50  243.0    60   87.1     8    173.5    12.1   1010.5  0.00  
 238   13:00  254.0    60   87.7     9    166.1    11.9   1010.2  0.00  
 238   13:10  337.0    60   84.2    10    221.1    13.2   1010.2  0.00  
 238   13:20  403.0    61   81.9    10    229.6    14.9   1010.2  0.00  
 238   13:30  474.0    61   81.4    11    228.0    14.8   1010.2  0.00  
 238   13:40  448.0    62   80.3    11    226.0    14.5   1009.8  0.00  
 238   13:50  388.0    61   81.3    11    233.3    14.9   1009.8  0.00  
 238   14:00  373.0    61   82.2    10    245.0    13.9   1009.8  0.00  
 238   14:10  367.0    61   82.0    10    250.0    14.2   1009.8  0.00  
 238   14:20  309.0    60   84.0    11    248.6    15.1   1009.8  0.00  
 238   14:30  301.0    60   84.3    11    233.2    14.6   1009.5  0.00  
 238   14:40  276.0    60   85.0    10    236.7    14.5   1009.5  0.00  
 238   14:50  303.0    61   83.2     9    236.1    13.1   1009.5  0.00  
 238   15:00  342.0    60   83.1    10    239.2    13.9   1009.5  0.00  
 238   15:10  312.0    60   83.1     8    236.3    10.5   1009.1  0.00  
 238   15:20  313.0    60   83.8     9    234.0    12.0   1009.1  0.00  
 238   15:30  291.0    61   82.9     9    243.2    12.0   1009.1  0.00  
 238   15:40  247.0    60   84.4     8    241.6    12.6   1009.1  0.00  
 238   15:50  200.0    60   84.7     8    235.7    12.1   1009.1  0.00  
 238   16:00  171.0    60   86.3     8    217.6    11.6   1008.8  0.00  
 238   16:10  132.0    60   85.8     8    223.8    11.5   1008.8  0.00  
 238   16:20  113.0    60   87.4     9    227.0    11.9   1008.8  0.00  
 238   16:30   99.0    59   89.5    10    220.9    13.5   1008.8  0.00  
 238   16:40  101.0    59   89.5     9    222.1    12.3   1008.8  0.00  
 238   16:50   77.0    59   88.7     8    210.2    11.5   1008.8  0.00  
 238   17:00   58.0    59   89.1     8    218.8    12.9   1008.8  0.00  
 238   17:10   49.0    59   90.2     8    227.4    12.3   1008.8  0.00  
 238   17:20   43.0    59   89.5    10    228.3    13.3   1008.8  0.00  
 238   17:30   38.0    59   89.6     6    220.3     9.5   1008.8  0.00  
 238   17:40   31.0    59   89.4     5    243.5     7.4   1008.8  0.00  
 238   17:50   25.0    59   90.2     5    217.4     7.5   1008.8  0.00  
 238   18:00   19.0    59   90.4     4    227.1     6.8   1008.8  0.00  
 238   18:10   14.0    59   90.8     3    222.0     5.3   1008.5  0.00  
 238   18:20   10.0    59   90.6     3    232.9     5.3   1008.5  0.00  
 238   18:30    6.0    59   90.8     4    249.8     5.8   1008.5  0.00  
 238   18:40    3.0    59   91.2     4    242.4     6.2   1008.5  0.00  
 238   18:50    1.0    59   91.5     3    247.4     4.4   1008.8  0.00  
 238   19:00    0.0    59   91.9     3    230.5     5.5   1008.8  0.00  
 238   19:10    0.0    59   92.4     3    240.2     5.6   1008.8  0.00  
 238   19:20    0.0    58   92.9     4    235.6     5.5   1008.8  0.00  
 238   19:30    0.0    58   93.5     5    224.9     7.4   1008.8  0.00  
 238   19:40    0.0    58   93.4     5    224.3     6.6   1008.8  0.00  
 238   19:50    0.0    58   93.6     3    208.9     5.3   1008.8  0.00  
 238   20:00    0.0    58   93.9     3    194.9     3.9   1009.1  0.00  
 238   20:10    0.0    58   94.2     3    176.2     5.0   1009.1  0.00  
 238   20:20    0.0    58   94.6     4    168.6     6.2   1009.1  0.00  
 238   20:30    0.0    58   94.9     5    167.8     6.6   1009.1  0.00  
 238   20:40    0.0    58   95.4     5    166.2     7.7   1009.1  0.00  
 238   20:50    0.0    58   95.7     6    180.0     9.3   1009.1  0.00  
 238   21:00    0.0    58   95.6     6    187.4     8.8   1009.1  0.00  
 238   21:10    0.0    58   95.8     6    169.0     8.1   1009.1  0.00  
 238   21:20    0.0    58   95.8     8    175.2    10.9   1008.8  0.00  
 238   21:30    0.0    58   95.5     7    169.7    11.0   1008.8  0.00  
 238   21:40    0.0    58   95.2     8    191.7    12.5   1008.8  0.00  
 238   21:50    0.0    58   95.2     6    182.6     8.7   1008.8  0.00  
 238   22:00    0.0    58   95.6     6    177.4     8.8   1008.8  0.00  
 238   22:10    0.0    58   95.7     7    173.9     9.4   1008.8  0.00  
 238   22:20    0.0    58   95.6     7    169.2    11.8   1008.5  0.00  

Return to Pt. Reyes graphs page.


Western Regional Climate Center,wrcc@dri.edu